createdAt,value
2018-12-11T00:04:37.536Z,2.40
2018-12-11T00:09:40.945Z,2.40
2018-12-11T00:14:44.287Z,2.40
2018-12-11T00:19:47.646Z,2.30
2018-12-11T00:24:51.035Z,2.40
2018-12-11T00:29:54.391Z,2.30
2018-12-11T00:34:57.820Z,2.40
2018-12-11T00:40:01.154Z,2.40
2018-12-11T00:45:04.766Z,2.40
2018-12-11T00:50:09.241Z,2.40
2018-12-11T01:00:15.813Z,2.40
2018-12-11T01:05:19.135Z,2.40
2018-12-11T01:10:22.507Z,2.40
2018-12-11T01:15:25.951Z,2.40
2018-12-11T01:20:29.279Z,2.40
2018-12-11T01:25:34.774Z,2.40
2018-12-11T01:30:38.103Z,2.50
2018-12-11T01:35:41.427Z,2.50
2018-12-11T01:40:44.838Z,2.50
2018-12-11T01:45:48.307Z,2.50
2018-12-11T01:50:51.682Z,2.50
2018-12-11T01:55:55.052Z,2.60
2018-12-11T02:00:58.446Z,2.60
2018-12-11T02:06:01.781Z,2.60
2018-12-11T02:11:05.093Z,2.50
2018-12-11T02:16:08.424Z,2.60
2018-12-11T02:21:12.334Z,2.60
2018-12-11T02:26:15.071Z,2.60
2018-12-11T02:31:18.352Z,2.60
2018-12-11T02:36:21.626Z,2.60
2018-12-11T02:41:25.049Z,2.60
2018-12-11T02:46:28.308Z,2.60
2018-12-11T02:51:31.591Z,2.70
2018-12-11T02:56:34.860Z,2.70
2018-12-11T03:01:38.159Z,2.60
2018-12-11T03:06:41.511Z,2.70
2018-12-11T03:11:44.750Z,2.60
2018-12-11T03:16:48.155Z,2.60
2018-12-11T03:21:51.458Z,2.70
2018-12-11T03:26:54.739Z,2.60
2018-12-11T03:31:58.201Z,2.60
2018-12-11T03:37:01.391Z,2.50
2018-12-11T03:42:04.686Z,2.50
2018-12-11T03:47:07.958Z,2.50
2018-12-11T03:52:11.246Z,2.60
2018-12-11T03:57:14.512Z,2.60
2018-12-11T04:02:17.807Z,2.60
2018-12-11T04:07:21.245Z,2.50
2018-12-11T04:12:24.553Z,2.50
2018-12-11T04:17:27.846Z,2.50
2018-12-11T04:22:31.277Z,2.30
2018-12-11T04:27:34.554Z,2.30
2018-12-11T04:32:37.835Z,2.10
2018-12-11T04:37:41.115Z,2.00
2018-12-11T04:42:44.487Z,1.90
2018-12-11T04:47:47.781Z,1.80
2018-12-11T04:52:51.058Z,1.90
2018-12-11T04:57:54.375Z,1.90
2018-12-11T05:02:57.668Z,2.00
2018-12-11T05:08:00.984Z,2.20
2018-12-11T05:13:04.262Z,2.20
2018-12-11T05:18:07.616Z,2.30
2018-12-11T05:23:10.912Z,2.30
2018-12-11T05:28:14.174Z,2.40
2018-12-11T05:33:17.538Z,2.40
2018-12-11T05:43:23.929Z,2.40
2018-12-11T05:48:27.239Z,2.50
2018-12-11T05:53:30.553Z,2.50
2018-12-11T05:58:33.869Z,2.50
2018-12-11T06:03:37.176Z,2.50
2018-12-11T06:08:40.614Z,2.60
2018-12-11T06:13:43.912Z,2.60
2018-12-11T06:18:47.218Z,2.60
2018-12-11T06:23:50.523Z,2.60
2018-12-11T06:28:53.991Z,2.60
2018-12-11T06:33:57.291Z,2.60
2018-12-11T06:39:00.599Z,2.70
2018-12-11T06:44:03.887Z,2.60
2018-12-11T06:49:07.227Z,2.70
2018-12-11T06:54:10.529Z,2.70
2018-12-11T06:59:13.930Z,2.70
2018-12-11T07:04:17.214Z,2.80
2018-12-11T07:09:20.514Z,2.70
2018-12-11T07:14:23.961Z,2.70
2018-12-11T07:19:27.239Z,2.80
2018-12-11T07:24:30.523Z,2.80
2018-12-11T07:29:33.809Z,2.80
2018-12-11T07:34:37.075Z,2.80
2018-12-11T07:39:40.350Z,2.80
2018-12-11T07:44:43.620Z,2.80
2018-12-11T07:49:47.037Z,2.80
2018-12-11T07:54:51.007Z,2.80
2018-12-11T07:59:54.270Z,2.80
2018-12-11T08:04:57.539Z,2.80
2018-12-11T08:10:00.819Z,2.80
2018-12-11T08:15:04.717Z,2.90
2018-12-11T08:20:08.006Z,2.90
2018-12-11T08:25:11.278Z,2.90
2018-12-11T08:30:14.549Z,2.90
2018-12-11T08:35:18.099Z,2.90
2018-12-11T08:40:21.388Z,2.90
2018-12-11T08:45:24.666Z,3.00
2018-12-11T08:50:27.943Z,3.10
2018-12-11T08:55:31.295Z,3.10
2018-12-11T09:00:34.575Z,3.10
2018-12-11T09:05:37.860Z,3.20
2018-12-11T09:10:41.136Z,3.20
2018-12-11T09:15:44.552Z,3.20
2018-12-11T09:20:47.832Z,3.20
2018-12-11T09:25:51.119Z,3.20
2018-12-11T09:30:54.507Z,3.20
2018-12-11T09:35:57.784Z,3.20
2018-12-11T09:41:01.076Z,3.40
2018-12-11T09:46:04.423Z,3.50
2018-12-11T09:51:07.723Z,3.70
2018-12-11T09:56:11.010Z,3.60
2018-12-11T10:01:14.302Z,3.50
2018-12-11T10:06:17.591Z,3.50
2018-12-11T10:11:20.896Z,3.50
2018-12-11T10:16:24.908Z,3.50
2018-12-11T10:21:28.336Z,3.50
2018-12-11T10:26:31.720Z,3.50
2018-12-11T10:31:35.047Z,3.60
2018-12-11T10:36:38.467Z,3.60
2018-12-11T10:41:41.894Z,3.60
2018-12-11T10:46:45.163Z,3.60
2018-12-11T10:51:48.460Z,3.60
2018-12-11T10:56:51.819Z,3.70
2018-12-11T11:01:55.108Z,3.70
2018-12-11T11:06:58.547Z,3.70
2018-12-11T11:12:01.833Z,3.70
2018-12-11T11:17:05.277Z,3.70
2018-12-11T11:22:08.600Z,3.70
2018-12-11T11:27:11.896Z,3.60
2018-12-11T11:32:15.302Z,3.60
2018-12-11T11:37:18.585Z,3.60
2018-12-11T11:42:21.909Z,3.50
2018-12-11T11:47:25.268Z,3.60
2018-12-11T11:52:28.643Z,3.60
2018-12-11T11:57:31.950Z,3.60
2018-12-11T12:02:35.280Z,3.70
2018-12-11T12:07:38.562Z,3.60
2018-12-11T12:12:41.949Z,3.60
2018-12-11T12:17:45.284Z,3.50
2018-12-11T12:22:48.570Z,3.50
2018-12-11T12:27:51.861Z,3.60
2018-12-11T12:32:55.248Z,3.80
2018-12-11T12:37:58.676Z,3.90
2018-12-11T12:43:01.948Z,4.00
2018-12-11T12:48:05.468Z,4.10
2018-12-11T12:53:08.698Z,4.20
2018-12-11T12:58:11.995Z,4.10
2018-12-11T13:03:15.880Z,4.10
2018-12-11T13:08:19.241Z,4.10
2018-12-11T13:13:22.641Z,4.00
2018-12-11T13:18:25.929Z,3.90
2018-12-11T13:23:29.267Z,4.00
2018-12-11T13:28:32.566Z,4.00
2018-12-11T13:33:36.016Z,3.90
2018-12-11T13:38:39.489Z,3.80
2018-12-11T13:43:42.941Z,3.80
2018-12-11T13:48:46.245Z,3.80
2018-12-11T13:53:49.714Z,3.80
2018-12-11T13:58:52.983Z,3.80
2018-12-11T14:03:56.279Z,3.70
2018-12-11T14:08:59.723Z,3.70
2018-12-11T14:14:03.018Z,3.60
2018-12-11T14:19:06.344Z,3.50
2018-12-11T14:24:09.727Z,3.50
2018-12-11T14:29:13.164Z,3.50
2018-12-11T14:34:16.548Z,3.40
2018-12-11T14:39:19.875Z,3.40
2018-12-11T14:44:23.207Z,3.40
2018-12-11T14:49:26.639Z,3.40
2018-12-11T14:54:29.993Z,3.20
2018-12-11T14:59:33.595Z,3.10
2018-12-11T15:04:36.942Z,2.60
2018-12-11T15:14:44.252Z,2.30
2018-12-11T15:19:47.689Z,2.30
2018-12-11T15:24:51.456Z,2.30
2018-12-11T15:29:54.942Z,2.40
2018-12-11T15:34:58.411Z,2.50
2018-12-11T15:40:02.032Z,2.50
2018-12-11T15:45:05.742Z,2.50
2018-12-11T15:50:09.536Z,2.60
2018-12-11T15:55:13.048Z,2.60
2018-12-11T16:00:16.494Z,2.60
2018-12-11T16:05:19.974Z,2.70
2018-12-11T16:10:23.478Z,2.70
2018-12-11T16:15:26.870Z,2.70
2018-12-11T16:20:30.389Z,2.60
2018-12-11T16:25:33.754Z,2.60
2018-12-11T16:30:37.331Z,2.60
2018-12-11T16:35:40.786Z,2.70
2018-12-11T16:40:44.381Z,2.70
2018-12-11T16:45:47.955Z,2.50
2018-12-11T16:50:51.476Z,2.60
2018-12-11T16:55:54.870Z,2.60
2018-12-11T17:00:58.365Z,2.60
2018-12-11T17:06:01.870Z,2.60
2018-12-11T17:11:05.291Z,2.50
2018-12-11T17:16:08.716Z,2.40
2018-12-11T17:21:12.354Z,2.40
2018-12-11T17:26:15.767Z,2.40
2018-12-11T17:31:23.478Z,2.50
2018-12-11T17:36:27.045Z,2.50
2018-12-11T17:41:30.703Z,2.50
2018-12-11T17:46:34.128Z,2.60
2018-12-11T17:51:37.552Z,2.60
2018-12-11T17:56:41.015Z,2.70
2018-12-11T18:01:46.787Z,2.70
2018-12-11T18:06:50.363Z,2.60
2018-12-11T18:11:53.799Z,2.70
2018-12-11T18:16:57.735Z,2.70
2018-12-11T18:22:01.243Z,2.80
2018-12-11T18:27:04.773Z,2.70
2018-12-11T18:32:08.175Z,2.70
2018-12-11T18:37:11.620Z,2.70
2018-12-11T18:42:15.080Z,2.70
2018-12-11T18:47:21.566Z,2.60
2018-12-11T18:52:25.081Z,2.60
2018-12-11T18:57:28.590Z,2.60
2018-12-11T19:02:32.110Z,2.60
2018-12-11T19:07:36.277Z,2.60
2018-12-11T19:12:39.752Z,2.60
2018-12-11T19:17:43.155Z,2.60
2018-12-11T19:22:49.149Z,2.60
2018-12-11T19:27:52.663Z,2.60
2018-12-11T19:32:56.056Z,2.50
2018-12-11T19:38:02.339Z,2.50
2018-12-11T19:43:07.314Z,2.50
2018-12-11T19:48:11.286Z,2.50
2018-12-11T19:53:14.899Z,2.50
2018-12-11T19:58:20.183Z,2.50
2018-12-11T20:03:23.640Z,2.50
2018-12-11T20:08:31.109Z,2.50
2018-12-11T20:13:31.259Z,2.50
2018-12-11T20:18:34.653Z,2.50
2018-12-11T20:23:38.157Z,2.50
2018-12-11T20:28:42.103Z,2.50
2018-12-11T20:33:45.493Z,2.50
2018-12-11T20:38:49.112Z,2.50
2018-12-11T20:43:52.695Z,2.50
2018-12-11T20:48:56.105Z,2.50
2018-12-11T20:53:59.501Z,2.50
2018-12-11T20:59:02.915Z,2.50
2018-12-11T21:04:06.307Z,2.50
2018-12-11T21:09:13.696Z,2.50
2018-12-11T21:14:18.165Z,2.50
2018-12-11T21:19:21.532Z,2.50
2018-12-11T21:24:24.965Z,2.50
2018-12-11T21:29:29.516Z,2.50
2018-12-11T21:34:34.310Z,2.50
2018-12-11T21:39:38.910Z,2.50
2018-12-11T21:44:43.575Z,2.50
2018-12-11T21:49:46.995Z,2.50
2018-12-11T21:54:50.588Z,2.60
2018-12-11T21:59:54.263Z,2.60
2018-12-11T22:04:57.622Z,2.60
2018-12-11T22:10:00.918Z,2.60
2018-12-11T22:15:05.844Z,2.60
2018-12-11T22:20:09.638Z,2.60
2018-12-11T22:25:13.585Z,2.60
2018-12-11T22:30:18.115Z,2.50
2018-12-11T22:35:22.164Z,2.50
2018-12-11T22:40:25.472Z,2.50
2018-12-11T22:45:28.847Z,2.50
2018-12-11T22:50:32.119Z,2.50
2018-12-11T22:55:35.489Z,2.50
2018-12-11T23:00:38.839Z,2.50
2018-12-11T23:05:42.301Z,2.50
2018-12-11T23:10:45.583Z,2.50
2018-12-11T23:15:48.859Z,2.50
2018-12-11T23:20:52.248Z,2.50
2018-12-11T23:25:55.525Z,2.60
2018-12-11T23:30:58.956Z,2.60
2018-12-11T23:41:05.387Z,2.60
2018-12-11T23:46:08.677Z,2.50
2018-12-11T23:51:12.005Z,2.50
2018-12-11T23:56:15.286Z,2.50
